Terminal Aerodrome Forecast
Issued by NWS

Home | Current Version | Previous Version | Text Only | Print | Product List | Glossary On
Versions: 1 2 3 4 5 6 7 8 9 10 11 12
000
FTAK31 PAJN 051700
TAFAJN
TAF
PAJN 051720Z 0518/0618 09005KT 6SM -RA BR SCT005 BKN025 OVC035
     FM052000 09008KT 4SM -RA BR BKN015 OVC025
     FM060000 08005KT P6SM -RA SCT015 BKN025 OVC040
     FM060300 09004KT P6SM VCSH SCT015 BKN035 OVC050
     FM061200 10006KT 6SM -RA BR BKN015 OVC025=

USA.gov is the U.S. government's official web portal to all federal, state and local government web resources and services.